sensor_id;sensor_type;location;lat;lon;timestamp;P1;durP1;ratioP1;P2;durP2;ratioP2
51854;SDS011;37895;53.240;6.572;2023-05-01T00:00:01;7.15;;;5.10;;
51854;SDS011;37895;53.240;6.572;2023-05-01T00:02:30;7.75;;;5.25;;
51854;SDS011;37895;53.240;6.572;2023-05-01T00:04:56;7.70;;;5.13;;
51854;SDS011;37895;53.240;6.572;2023-05-01T00:07:21;6.80;;;5.50;;
51854;SDS011;37895;53.240;6.572;2023-05-01T00:09:49;8.25;;;5.13;;
51854;SDS011;37895;53.240;6.572;2023-05-01T00:12:15;7.32;;;5.30;;
51854;SDS011;37895;53.240;6.572;2023-05-01T00:14:41;10.68;;;5.40;;
51854;SDS011;37895;53.240;6.572;2023-05-01T00:17:06;9.20;;;5.32;;
51854;SDS011;37895;53.240;6.572;2023-05-01T00:19:32;9.60;;;5.50;;
51854;SDS011;37895;53.240;6.572;2023-05-01T00:21:58;8.40;;;5.95;;
51854;SDS011;37895;53.240;6.572;2023-05-01T00:24:23;8.60;;;6.35;;
51854;SDS011;37895;53.240;6.572;2023-05-01T00:26:49;7.47;;;5.90;;
51854;SDS011;37895;53.240;6.572;2023-05-01T00:29:15;9.00;;;6.20;;
51854;SDS011;37895;53.240;6.572;2023-05-01T00:31:41;8.00;;;6.10;;
51854;SDS011;37895;53.240;6.572;2023-05-01T00:36:33;8.93;;;6.00;;
51854;SDS011;37895;53.240;6.572;2023-05-01T00:38:59;8.90;;;6.25;;
51854;SDS011;37895;53.240;6.572;2023-05-01T00:41:24;8.45;;;6.25;;
51854;SDS011;37895;53.240;6.572;2023-05-01T00:43:50;10.07;;;6.47;;
51854;SDS011;37895;53.240;6.572;2023-05-01T00:46:16;10.52;;;6.78;;
51854;SDS011;37895;53.240;6.572;2023-05-01T00:48:42;9.15;;;5.63;;
51854;SDS011;37895;53.240;6.572;2023-05-01T00:51:08;8.85;;;5.97;;
51854;SDS011;37895;53.240;6.572;2023-05-01T00:53:34;9.30;;;6.10;;
51854;SDS011;37895;53.240;6.572;2023-05-01T00:56:00;9.20;;;6.07;;
51854;SDS011;37895;53.240;6.572;2023-05-01T00:58:26;8.50;;;5.70;;
51854;SDS011;37895;53.240;6.572;2023-05-01T01:00:53;7.95;;;5.97;;
51854;SDS011;37895;53.240;6.572;2023-05-01T01:05:46;9.15;;;5.80;;
51854;SDS011;37895;53.240;6.572;2023-05-01T01:08:18;9.43;;;6.53;;
51854;SDS011;37895;53.240;6.572;2023-05-01T01:13:31;8.52;;;5.93;;
51854;SDS011;37895;53.240;6.572;2023-05-01T01:18:39;9.40;;;6.55;;
51854;SDS011;37895;53.240;6.572;2023-05-01T01:35:01;11.90;;;7.00;;
51854;SDS011;37895;53.240;6.572;2023-05-01T01:37:41;8.13;;;6.32;;
51854;SDS011;37895;53.240;6.572;2023-05-01T01:40:13;7.60;;;5.97;;
51854;SDS011;37895;53.240;6.572;2023-05-01T01:42:48;9.35;;;6.28;;
51854;SDS011;37895;53.240;6.572;2023-05-01T01:45:22;10.25;;;6.45;;
51854;SDS011;37895;53.240;6.572;2023-05-01T01:47:58;11.25;;;6.28;;
51854;SDS011;37895;53.240;6.572;2023-05-01T01:50:25;10.90;;;6.50;;
51854;SDS011;37895;53.240;6.572;2023-05-01T01:52:52;9.50;;;6.15;;
51854;SDS011;37895;53.240;6.572;2023-05-01T01:55:23;7.78;;;6.50;;
51854;SDS011;37895;53.240;6.572;2023-05-01T01:57:52;7.60;;;6.55;;
51854;SDS011;37895;53.240;6.572;2023-05-01T02:00:17;8.77;;;6.10;;
51854;SDS011;37895;53.240;6.572;2023-05-01T02:02:45;8.38;;;6.20;;
51854;SDS011;37895;53.240;6.572;2023-05-01T02:05:13;9.10;;;6.28;;
51854;SDS011;37895;53.240;6.572;2023-05-01T02:07:40;8.40;;;6.65;;
51854;SDS011;37895;53.240;6.572;2023-05-01T02:10:10;10.38;;;6.22;;
51854;SDS011;37895;53.240;6.572;2023-05-01T02:12:38;11.63;;;6.68;;
51854;SDS011;37895;53.240;6.572;2023-05-01T02:15:12;10.38;;;6.70;;
51854;SDS011;37895;53.240;6.572;2023-05-01T02:17:39;8.43;;;6.47;;
51854;SDS011;37895;53.240;6.572;2023-05-01T02:20:06;7.15;;;6.35;;
51854;SDS011;37895;53.240;6.572;2023-05-01T02:22:34;8.95;;;6.97;;
51854;SDS011;37895;53.240;6.572;2023-05-01T02:25:01;8.55;;;6.75;;
51854;SDS011;37895;53.240;6.572;2023-05-01T02:27:32;8.38;;;6.93;;
51854;SDS011;37895;53.240;6.572;2023-05-01T02:30:00;9.73;;;6.35;;
51854;SDS011;37895;53.240;6.572;2023-05-01T02:32:26;11.63;;;7.45;;
51854;SDS011;37895;53.240;6.572;2023-05-01T02:34:52;10.65;;;6.75;;
51854;SDS011;37895;53.240;6.572;2023-05-01T02:37:18;9.52;;;7.13;;
51854;SDS011;37895;53.240;6.572;2023-05-01T02:39:44;14.25;;;6.88;;
51854;SDS011;37895;53.240;6.572;2023-05-01T02:42:10;9.25;;;6.93;;
51854;SDS011;37895;53.240;6.572;2023-05-01T02:44:48;9.35;;;6.60;;
51854;SDS011;37895;53.240;6.572;2023-05-01T02:47:18;10.82;;;6.32;;
51854;SDS011;37895;53.240;6.572;2023-05-01T02:49:46;9.98;;;6.93;;
51854;SDS011;37895;53.240;6.572;2023-05-01T02:52:14;9.63;;;7.07;;
51854;SDS011;37895;53.240;6.572;2023-05-01T02:54:42;11.68;;;7.28;;
51854;SDS011;37895;53.240;6.572;2023-05-01T02:57:09;11.73;;;6.88;;
51854;SDS011;37895;53.240;6.572;2023-05-01T02:59:35;12.35;;;6.97;;
51854;SDS011;37895;53.240;6.572;2023-05-01T03:02:02;12.43;;;7.20;;
51854;SDS011;37895;53.240;6.572;2023-05-01T03:04:28;10.43;;;7.38;;
51854;SDS011;37895;53.240;6.572;2023-05-01T03:06:54;13.40;;;7.97;;
51854;SDS011;37895;53.240;6.572;2023-05-01T03:09:20;9.07;;;7.22;;
51854;SDS011;37895;53.240;6.572;2023-05-01T03:11:46;11.05;;;7.80;;
51854;SDS011;37895;53.240;6.572;2023-05-01T03:14:12;11.18;;;7.47;;
51854;SDS011;37895;53.240;6.572;2023-05-01T03:16:37;11.68;;;7.40;;
51854;SDS011;37895;53.240;6.572;2023-05-01T03:19:04;12.82;;;7.47;;
51854;SDS011;37895;53.240;6.572;2023-05-01T03:21:30;12.70;;;7.03;;
51854;SDS011;37895;53.240;6.572;2023-05-01T03:23:56;9.55;;;7.13;;
51854;SDS011;37895;53.240;6.572;2023-05-01T03:26:22;9.48;;;7.13;;
51854;SDS011;37895;53.240;6.572;2023-05-01T03:28:48;12.43;;;8.13;;
51854;SDS011;37895;53.240;6.572;2023-05-01T03:31:14;11.23;;;8.05;;
51854;SDS011;37895;53.240;6.572;2023-05-01T03:33:39;12.77;;;8.13;;
51854;SDS011;37895;53.240;6.572;2023-05-01T03:36:05;11.45;;;8.32;;
51854;SDS011;37895;53.240;6.572;2023-05-01T03:38:33;13.65;;;8.30;;
51854;SDS011;37895;53.240;6.572;2023-05-01T03:40:59;10.85;;;8.05;;
51854;SDS011;37895;53.240;6.572;2023-05-01T03:43:25;13.73;;;7.90;;
51854;SDS011;37895;53.240;6.572;2023-05-01T03:45:50;16.35;;;8.85;;
51854;SDS011;37895;53.240;6.572;2023-05-01T03:48:16;12.38;;;9.20;;
51854;SDS011;37895;53.240;6.572;2023-05-01T03:50:43;12.10;;;9.18;;
51854;SDS011;37895;53.240;6.572;2023-05-01T03:53:09;12.55;;;9.07;;
51854;SDS011;37895;53.240;6.572;2023-05-01T03:55:34;14.48;;;8.57;;
51854;SDS011;37895;53.240;6.572;2023-05-01T03:58:00;13.00;;;8.85;;
51854;SDS011;37895;53.240;6.572;2023-05-01T04:00:26;13.40;;;8.85;;
51854;SDS011;37895;53.240;6.572;2023-05-01T04:02:52;13.68;;;9.13;;
51854;SDS011;37895;53.240;6.572;2023-05-01T04:05:17;11.53;;;8.50;;
51854;SDS011;37895;53.240;6.572;2023-05-01T04:07:45;11.50;;;8.65;;
51854;SDS011;37895;53.240;6.572;2023-05-01T04:10:11;11.98;;;8.45;;
51854;SDS011;37895;53.240;6.572;2023-05-01T04:12:37;10.80;;;9.05;;
51854;SDS011;37895;53.240;6.572;2023-05-01T04:15:03;13.95;;;9.43;;
51854;SDS011;37895;53.240;6.572;2023-05-01T04:17:29;12.60;;;8.93;;
51854;SDS011;37895;53.240;6.572;2023-05-01T04:19:55;15.45;;;9.13;;
51854;SDS011;37895;53.240;6.572;2023-05-01T04:22:21;15.10;;;9.10;;
51854;SDS011;37895;53.240;6.572;2023-05-01T04:24:47;11.63;;;8.48;;
51854;SDS011;37895;53.240;6.572;2023-05-01T04:27:13;11.25;;;8.93;;
51854;SDS011;37895;53.240;6.572;2023-05-01T04:29:39;10.40;;;8.60;;
51854;SDS011;37895;53.240;6.572;2023-05-01T04:32:05;12.38;;;9.13;;
51854;SDS011;37895;53.240;6.572;2023-05-01T04:34:31;11.05;;;9.15;;
51854;SDS011;37895;53.240;6.572;2023-05-01T04:36:57;13.75;;;9.13;;
51854;SDS011;37895;53.240;6.572;2023-05-01T04:39:23;12.50;;;9.00;;
51854;SDS011;37895;53.240;6.572;2023-05-01T04:41:49;13.10;;;9.43;;
51854;SDS011;37895;53.240;6.572;2023-05-01T04:44:14;11.73;;;9.10;;
51854;SDS011;37895;53.240;6.572;2023-05-01T04:46:40;11.98;;;8.70;;
51854;SDS011;37895;53.240;6.572;2023-05-01T04:49:06;11.73;;;9.25;;
51854;SDS011;37895;53.240;6.572;2023-05-01T04:51:33;12.80;;;9.18;;
51854;SDS011;37895;53.240;6.572;2023-05-01T04:53:59;11.82;;;9.40;;
51854;SDS011;37895;53.240;6.572;2023-05-01T04:56:24;11.57;;;9.00;;
51854;SDS011;37895;53.240;6.572;2023-05-01T04:58:50;12.38;;;8.68;;
51854;SDS011;37895;53.240;6.572;2023-05-01T05:01:16;13.02;;;9.25;;
51854;SDS011;37895;53.240;6.572;2023-05-01T05:03:42;10.52;;;9.15;;
51854;SDS011;37895;53.240;6.572;2023-05-01T05:06:07;11.15;;;9.05;;
51854;SDS011;37895;53.240;6.572;2023-05-01T05:08:33;13.68;;;8.82;;
51854;SDS011;37895;53.240;6.572;2023-05-01T05:10:59;11.13;;;9.02;;
51854;SDS011;37895;53.240;6.572;2023-05-01T05:13:25;11.85;;;9.05;;
51854;SDS011;37895;53.240;6.572;2023-05-01T05:15:51;14.30;;;9.75;;
51854;SDS011;37895;53.240;6.572;2023-05-01T05:18:17;12.23;;;8.85;;
51854;SDS011;37895;53.240;6.572;2023-05-01T05:20:43;10.45;;;8.93;;
51854;SDS011;37895;53.240;6.572;2023-05-01T05:23:08;11.73;;;9.45;;
51854;SDS011;37895;53.240;6.572;2023-05-01T05:25:34;10.57;;;9.32;;
51854;SDS011;37895;53.240;6.572;2023-05-01T05:28:00;13.05;;;8.93;;
51854;SDS011;37895;53.240;6.572;2023-05-01T05:30:26;15.63;;;9.52;;
51854;SDS011;37895;53.240;6.572;2023-05-01T05:32:52;12.52;;;8.52;;
51854;SDS011;37895;53.240;6.572;2023-05-01T05:35:17;11.27;;;8.88;;
51854;SDS011;37895;53.240;6.572;2023-05-01T05:37:43;14.88;;;9.35;;
51854;SDS011;37895;53.240;6.572;2023-05-01T05:40:09;11.23;;;8.35;;
51854;SDS011;37895;53.240;6.572;2023-05-01T05:42:35;11.25;;;9.05;;
51854;SDS011;37895;53.240;6.572;2023-05-01T05:45:00;12.13;;;8.27;;
51854;SDS011;37895;53.240;6.572;2023-05-01T05:47:26;13.00;;;8.05;;
51854;SDS011;37895;53.240;6.572;2023-05-01T05:49:52;14.07;;;8.82;;
51854;SDS011;37895;53.240;6.572;2023-05-01T05:52:19;10.75;;;8.07;;
51854;SDS011;37895;53.240;6.572;2023-05-01T05:54:45;11.48;;;8.50;;
51854;SDS011;37895;53.240;6.572;2023-05-01T05:57:11;10.63;;;8.65;;
51854;SDS011;37895;53.240;6.572;2023-05-01T05:59:36;11.93;;;8.80;;
51854;SDS011;37895;53.240;6.572;2023-05-01T06:02:02;12.77;;;8.23;;
51854;SDS011;37895;53.240;6.572;2023-05-01T06:04:28;10.80;;;7.95;;
51854;SDS011;37895;53.240;6.572;2023-05-01T06:06:54;12.13;;;8.95;;
51854;SDS011;37895;53.240;6.572;2023-05-01T06:09:20;14.20;;;9.68;;
51854;SDS011;37895;53.240;6.572;2023-05-01T06:11:45;17.02;;;9.88;;
51854;SDS011;37895;53.240;6.572;2023-05-01T06:14:12;13.52;;;9.65;;
51854;SDS011;37895;53.240;6.572;2023-05-01T06:16:38;12.27;;;9.00;;
51854;SDS011;37895;53.240;6.572;2023-05-01T06:19:04;14.52;;;8.93;;
51854;SDS011;37895;53.240;6.572;2023-05-01T06:21:30;15.05;;;9.68;;
51854;SDS011;37895;53.240;6.572;2023-05-01T06:23:56;12.05;;;8.55;;
51854;SDS011;37895;53.240;6.572;2023-05-01T06:26:22;12.68;;;9.82;;
51854;SDS011;37895;53.240;6.572;2023-05-01T06:28:48;12.60;;;8.82;;
51854;SDS011;37895;53.240;6.572;2023-05-01T06:31:13;12.90;;;8.70;;
51854;SDS011;37895;53.240;6.572;2023-05-01T06:39:44;14.60;;;9.60;;
51854;SDS011;37895;53.240;6.572;2023-05-01T06:42:09;16.02;;;8.45;;
51854;SDS011;37895;53.240;6.572;2023-05-01T06:44:39;14.18;;;9.68;;
51854;SDS011;37895;53.240;6.572;2023-05-01T06:47:05;15.27;;;9.27;;
51854;SDS011;37895;53.240;6.572;2023-05-01T06:49:31;13.73;;;10.57;;
51854;SDS011;37895;53.240;6.572;2023-05-01T06:51:57;11.63;;;9.73;;
51854;SDS011;37895;53.240;6.572;2023-05-01T06:54:23;12.55;;;10.15;;
51854;SDS011;37895;53.240;6.572;2023-05-01T06:56:50;13.10;;;9.20;;
51854;SDS011;37895;53.240;6.572;2023-05-01T06:59:17;16.67;;;9.50;;
51854;SDS011;37895;53.240;6.572;2023-05-01T07:01:43;12.90;;;9.05;;
51854;SDS011;37895;53.240;6.572;2023-05-01T07:04:09;11.88;;;9.20;;
51854;SDS011;37895;53.240;6.572;2023-05-01T07:06:34;15.20;;;9.75;;
51854;SDS011;37895;53.240;6.572;2023-05-01T07:09:01;15.77;;;9.30;;
51854;SDS011;37895;53.240;6.572;2023-05-01T07:11:27;13.05;;;9.40;;
51854;SDS011;37895;53.240;6.572;2023-05-01T07:13:53;12.10;;;9.40;;
51854;SDS011;37895;53.240;6.572;2023-05-01T07:16:19;13.30;;;9.73;;
51854;SDS011;37895;53.240;6.572;2023-05-01T07:18:45;14.68;;;9.77;;
51854;SDS011;37895;53.240;6.572;2023-05-01T07:21:10;12.40;;;9.32;;
51854;SDS011;37895;53.240;6.572;2023-05-01T07:23:37;17.20;;;9.93;;
51854;SDS011;37895;53.240;6.572;2023-05-01T07:26:03;12.98;;;8.88;;
51854;SDS011;37895;53.240;6.572;2023-05-01T07:28:29;14.43;;;8.90;;
51854;SDS011;37895;53.240;6.572;2023-05-01T07:30:55;14.75;;;9.68;;
51854;SDS011;37895;53.240;6.572;2023-05-01T07:33:21;15.80;;;9.68;;
51854;SDS011;37895;53.240;6.572;2023-05-01T07:35:48;12.95;;;8.75;;
51854;SDS011;37895;53.240;6.572;2023-05-01T07:38:14;12.50;;;9.07;;
51854;SDS011;37895;53.240;6.572;2023-05-01T07:40:41;15.15;;;8.35;;
51854;SDS011;37895;53.240;6.572;2023-05-01T07:43:07;11.82;;;8.63;;
51854;SDS011;37895;53.240;6.572;2023-05-01T07:45:36;11.05;;;7.93;;
51854;SDS011;37895;53.240;6.572;2023-05-01T07:48:03;12.18;;;8.27;;
51854;SDS011;37895;53.240;6.572;2023-05-01T07:50:29;16.25;;;8.45;;
51854;SDS011;37895;53.240;6.572;2023-05-01T07:52:55;10.40;;;7.88;;
51854;SDS011;37895;53.240;6.572;2023-05-01T07:55:21;8.55;;;7.38;;
51854;SDS011;37895;53.240;6.572;2023-05-01T08:00:13;11.52;;;7.68;;
51854;SDS011;37895;53.240;6.572;2023-05-01T08:02:39;9.48;;;8.13;;
51854;SDS011;37895;53.240;6.572;2023-05-01T08:05:05;12.35;;;8.65;;
51854;SDS011;37895;53.240;6.572;2023-05-01T08:07:31;10.13;;;6.95;;
51854;SDS011;37895;53.240;6.572;2023-05-01T08:09:57;13.35;;;7.25;;
51854;SDS011;37895;53.240;6.572;2023-05-01T08:12:24;12.60;;;7.25;;
51854;SDS011;37895;53.240;6.572;2023-05-01T08:14:50;12.68;;;7.00;;
51854;SDS011;37895;53.240;6.572;2023-05-01T08:17:16;12.13;;;6.50;;
51854;SDS011;37895;53.240;6.572;2023-05-01T08:19:42;10.52;;;6.30;;
51854;SDS011;37895;53.240;6.572;2023-05-01T08:22:09;14.73;;;6.70;;
51854;SDS011;37895;53.240;6.572;2023-05-01T08:24:35;16.33;;;7.07;;
51854;SDS011;37895;53.240;6.572;2023-05-01T08:27:00;17.27;;;6.80;;
51854;SDS011;37895;53.240;6.572;2023-05-01T08:29:26;10.52;;;6.20;;
51854;SDS011;37895;53.240;6.572;2023-05-01T08:31:52;19.73;;;6.55;;
51854;SDS011;37895;53.240;6.572;2023-05-01T08:34:19;13.77;;;6.50;;
51854;SDS011;37895;53.240;6.572;2023-05-01T08:36:46;11.57;;;6.45;;
51854;SDS011;37895;53.240;6.572;2023-05-01T08:39:12;11.43;;;6.00;;
51854;SDS011;37895;53.240;6.572;2023-05-01T08:41:43;11.00;;;6.32;;
51854;SDS011;37895;53.240;6.572;2023-05-01T08:44:10;13.02;;;7.03;;
51854;SDS011;37895;53.240;6.572;2023-05-01T08:49:30;9.77;;;6.90;;
51854;SDS011;37895;53.240;6.572;2023-05-01T08:51:58;11.95;;;5.85;;
51854;SDS011;37895;53.240;6.572;2023-05-01T08:54:28;12.10;;;6.07;;
51854;SDS011;37895;53.240;6.572;2023-05-01T08:56:55;10.15;;;6.00;;
51854;SDS011;37895;53.240;6.572;2023-05-01T08:59:26;11.50;;;5.85;;
51854;SDS011;37895;53.240;6.572;2023-05-01T09:01:54;8.95;;;5.28;;
51854;SDS011;37895;53.240;6.572;2023-05-01T09:04:20;9.13;;;5.72;;
51854;SDS011;37895;53.240;6.572;2023-05-01T09:09:12;9.23;;;5.32;;
51854;SDS011;37895;53.240;6.572;2023-05-01T09:11:38;10.10;;;5.15;;
51854;SDS011;37895;53.240;6.572;2023-05-01T09:16:30;11.75;;;5.55;;
51854;SDS011;37895;53.240;6.572;2023-05-01T09:18:56;9.25;;;5.28;;
51854;SDS011;37895;53.240;6.572;2023-05-01T09:21:23;9.48;;;5.00;;
51854;SDS011;37895;53.240;6.572;2023-05-01T09:23:51;8.18;;;4.70;;
51854;SDS011;37895;53.240;6.572;2023-05-01T09:26:17;10.38;;;5.10;;
51854;SDS011;37895;53.240;6.572;2023-05-01T09:28:46;10.52;;;5.60;;
51854;SDS011;37895;53.240;6.572;2023-05-01T09:31:19;10.13;;;5.30;;
51854;SDS011;37895;53.240;6.572;2023-05-01T09:36:15;10.95;;;5.15;;
51854;SDS011;37895;53.240;6.572;2023-05-01T09:38:42;14.27;;;5.18;;
51854;SDS011;37895;53.240;6.572;2023-05-01T09:41:08;9.38;;;4.60;;
51854;SDS011;37895;53.240;6.572;2023-05-01T09:43:34;12.30;;;4.35;;
51854;SDS011;37895;53.240;6.572;2023-05-01T09:46:03;8.50;;;4.15;;
51854;SDS011;37895;53.240;6.572;2023-05-01T09:48:33;7.47;;;4.07;;
51854;SDS011;37895;53.240;6.572;2023-05-01T09:53:37;9.70;;;4.10;;
51854;SDS011;37895;53.240;6.572;2023-05-01T09:56:04;6.40;;;3.58;;
51854;SDS011;37895;53.240;6.572;2023-05-01T09:58:30;9.18;;;3.58;;
51854;SDS011;37895;53.240;6.572;2023-05-01T10:00:56;6.07;;;3.15;;
51854;SDS011;37895;53.240;6.572;2023-05-01T10:03:22;9.57;;;3.95;;
51854;SDS011;37895;53.240;6.572;2023-05-01T10:05:47;5.93;;;3.15;;
51854;SDS011;37895;53.240;6.572;2023-05-01T10:08:13;6.18;;;3.25;;
51854;SDS011;37895;53.240;6.572;2023-05-01T10:10:39;7.45;;;3.30;;
51854;SDS011;37895;53.240;6.572;2023-05-01T10:13:12;7.60;;;3.13;;
51854;SDS011;37895;53.240;6.572;2023-05-01T10:15:39;5.75;;;2.97;;
51854;SDS011;37895;53.240;6.572;2023-05-01T10:18:04;5.05;;;3.30;;
51854;SDS011;37895;53.240;6.572;2023-05-01T10:20:33;6.65;;;3.75;;
51854;SDS011;37895;53.240;6.572;2023-05-01T10:23:00;5.22;;;3.08;;
51854;SDS011;37895;53.240;6.572;2023-05-01T10:25:27;6.60;;;3.00;;
51854;SDS011;37895;53.240;6.572;2023-05-01T10:27:54;7.53;;;3.60;;
51854;SDS011;37895;53.240;6.572;2023-05-01T10:30:21;6.75;;;4.45;;
51854;SDS011;37895;53.240;6.572;2023-05-01T10:32:47;8.10;;;4.10;;
51854;SDS011;37895;53.240;6.572;2023-05-01T10:35:14;9.20;;;3.50;;
51854;SDS011;37895;53.240;6.572;2023-05-01T10:37:50;6.25;;;3.05;;
51854;SDS011;37895;53.240;6.572;2023-05-01T10:45:50;7.75;;;3.90;;
51854;SDS011;37895;53.240;6.572;2023-05-01T10:53:38;7.03;;;3.80;;
51854;SDS011;37895;53.240;6.572;2023-05-01T10:59:03;7.45;;;4.47;;
51854;SDS011;37895;53.240;6.572;2023-05-01T11:15:08;9.25;;;4.10;;
51854;SDS011;37895;53.240;6.572;2023-05-01T11:20:06;8.40;;;4.10;;
51854;SDS011;37895;53.240;6.572;2023-05-01T11:22:36;5.97;;;3.28;;
51854;SDS011;37895;53.240;6.572;2023-05-01T11:25:16;6.22;;;3.72;;
51854;SDS011;37895;53.240;6.572;2023-05-01T11:27:47;5.47;;;3.40;;
51854;SDS011;37895;53.240;6.572;2023-05-01T11:30:14;6.43;;;4.15;;
51854;SDS011;37895;53.240;6.572;2023-05-01T11:32:44;7.15;;;3.30;;
51854;SDS011;37895;53.240;6.572;2023-05-01T11:37:52;8.18;;;4.40;;
51854;SDS011;37895;53.240;6.572;2023-05-01T11:42:52;7.13;;;3.42;;
51854;SDS011;37895;53.240;6.572;2023-05-01T11:45:27;7.45;;;3.92;;
51854;SDS011;37895;53.240;6.572;2023-05-01T11:47:54;3.25;;;2.30;;
51854;SDS011;37895;53.240;6.572;2023-05-01T11:50:20;3.03;;;2.10;;
51854;SDS011;37895;53.240;6.572;2023-05-01T11:52:46;2.92;;;1.98;;
51854;SDS011;37895;53.240;6.572;2023-05-01T11:55:14;4.63;;;2.30;;
51854;SDS011;37895;53.240;6.572;2023-05-01T11:57:47;4.00;;;1.80;;
51854;SDS011;37895;53.240;6.572;2023-05-01T12:00:27;4.10;;;2.25;;
51854;SDS011;37895;53.240;6.572;2023-05-01T12:03:03;5.47;;;2.20;;
51854;SDS011;37895;53.240;6.572;2023-05-01T12:05:33;2.88;;;1.83;;
51854;SDS011;37895;53.240;6.572;2023-05-01T12:08:16;5.90;;;2.38;;
51854;SDS011;37895;53.240;6.572;2023-05-01T12:10:50;2.70;;;2.00;;
51854;SDS011;37895;53.240;6.572;2023-05-01T12:13:18;2.50;;;1.88;;
51854;SDS011;37895;53.240;6.572;2023-05-01T12:15:45;5.82;;;2.22;;
51854;SDS011;37895;53.240;6.572;2023-05-01T12:18:20;3.28;;;1.88;;
51854;SDS011;37895;53.240;6.572;2023-05-01T12:20:47;3.85;;;1.83;;
51854;SDS011;37895;53.240;6.572;2023-05-01T12:23:16;5.63;;;2.28;;
51854;SDS011;37895;53.240;6.572;2023-05-01T12:25:43;3.30;;;1.80;;
51854;SDS011;37895;53.240;6.572;2023-05-01T12:28:13;4.57;;;2.00;;
51854;SDS011;37895;53.240;6.572;2023-05-01T12:30:41;4.93;;;2.15;;
51854;SDS011;37895;53.240;6.572;2023-05-01T12:33:10;3.97;;;1.95;;
51854;SDS011;37895;53.240;6.572;2023-05-01T12:35:41;3.58;;;1.80;;
51854;SDS011;37895;53.240;6.572;2023-05-01T12:40:47;5.07;;;2.00;;
51854;SDS011;37895;53.240;6.572;2023-05-01T12:43:31;3.95;;;1.73;;
51854;SDS011;37895;53.240;6.572;2023-05-01T12:45:58;4.18;;;1.70;;
51854;SDS011;37895;53.240;6.572;2023-05-01T12:48:24;7.07;;;2.08;;
51854;SDS011;37895;53.240;6.572;2023-05-01T12:50:51;4.75;;;2.25;;
51854;SDS011;37895;53.240;6.572;2023-05-01T12:53:21;4.18;;;1.65;;
51854;SDS011;37895;53.240;6.572;2023-05-01T12:55:49;7.80;;;2.03;;
51854;SDS011;37895;53.240;6.572;2023-05-01T12:58:16;5.15;;;2.05;;
51854;SDS011;37895;53.240;6.572;2023-05-01T13:03:12;3.15;;;1.60;;
51854;SDS011;37895;53.240;6.572;2023-05-01T13:05:51;4.22;;;1.95;;
51854;SDS011;37895;53.240;6.572;2023-05-01T13:08:24;4.03;;;1.80;;
51854;SDS011;37895;53.240;6.572;2023-05-01T13:10:54;2.92;;;1.65;;
51854;SDS011;37895;53.240;6.572;2023-05-01T13:13:28;3.25;;;1.70;;
51854;SDS011;37895;53.240;6.572;2023-05-01T13:16:29;3.90;;;1.92;;
51854;SDS011;37895;53.240;6.572;2023-05-01T13:18:49;3.63;;;2.00;;
51854;SDS011;37895;53.240;6.572;2023-05-01T13:21:20;4.05;;;1.63;;
51854;SDS011;37895;53.240;6.572;2023-05-01T13:23:54;3.35;;;2.17;;
51854;SDS011;37895;53.240;6.572;2023-05-01T13:26:24;5.38;;;2.72;;
51854;SDS011;37895;53.240;6.572;2023-05-01T13:29:00;5.45;;;3.05;;
51854;SDS011;37895;53.240;6.572;2023-05-01T13:31:28;5.63;;;3.75;;
51854;SDS011;37895;53.240;6.572;2023-05-01T13:33:54;7.85;;;3.25;;
51854;SDS011;37895;53.240;6.572;2023-05-01T13:36:22;5.22;;;3.33;;
51854;SDS011;37895;53.240;6.572;2023-05-01T13:38:52;4.82;;;3.08;;
51854;SDS011;37895;53.240;6.572;2023-05-01T13:41:20;6.47;;;3.30;;
51854;SDS011;37895;53.240;6.572;2023-05-01T13:43:46;11.18;;;3.80;;
51854;SDS011;37895;53.240;6.572;2023-05-01T13:46:14;5.70;;;3.10;;
51854;SDS011;37895;53.240;6.572;2023-05-01T13:48:41;7.38;;;3.17;;
51854;SDS011;37895;53.240;6.572;2023-05-01T13:53:34;6.43;;;3.08;;
51854;SDS011;37895;53.240;6.572;2023-05-01T13:56:02;5.60;;;2.53;;
51854;SDS011;37895;53.240;6.572;2023-05-01T13:58:28;6.97;;;2.97;;
51854;SDS011;37895;53.240;6.572;2023-05-01T14:00:55;5.18;;;2.65;;
51854;SDS011;37895;53.240;6.572;2023-05-01T14:03:21;6.18;;;2.60;;
51854;SDS011;37895;53.240;6.572;2023-05-01T14:05:47;4.97;;;2.50;;
51854;SDS011;37895;53.240;6.572;2023-05-01T14:08:13;4.45;;;2.50;;
51854;SDS011;37895;53.240;6.572;2023-05-01T14:10:39;3.55;;;2.28;;
51854;SDS011;37895;53.240;6.572;2023-05-01T14:13:05;5.88;;;2.35;;
51854;SDS011;37895;53.240;6.572;2023-05-01T14:15:34;4.68;;;2.40;;
51854;SDS011;37895;53.240;6.572;2023-05-01T14:18:06;4.20;;;2.58;;
51854;SDS011;37895;53.240;6.572;2023-05-01T14:20:31;4.43;;;2.42;;
51854;SDS011;37895;53.240;6.572;2023-05-01T14:22:58;4.47;;;2.50;;
51854;SDS011;37895;53.240;6.572;2023-05-01T14:25:27;6.40;;;2.38;;
51854;SDS011;37895;53.240;6.572;2023-05-01T14:27:55;6.90;;;2.90;;
51854;SDS011;37895;53.240;6.572;2023-05-01T14:30:29;5.63;;;2.60;;
51854;SDS011;37895;53.240;6.572;2023-05-01T14:32:57;4.63;;;2.40;;
51854;SDS011;37895;53.240;6.572;2023-05-01T14:35:26;4.72;;;2.53;;
51854;SDS011;37895;53.240;6.572;2023-05-01T14:37:52;7.72;;;3.85;;
51854;SDS011;37895;53.240;6.572;2023-05-01T14:40:21;4.18;;;2.40;;
51854;SDS011;37895;53.240;6.572;2023-05-01T14:42:52;4.82;;;2.63;;
51854;SDS011;37895;53.240;6.572;2023-05-01T14:45:19;6.90;;;2.72;;
51854;SDS011;37895;53.240;6.572;2023-05-01T14:50:17;3.22;;;2.20;;
51854;SDS011;37895;53.240;6.572;2023-05-01T14:52:44;4.15;;;2.40;;
51854;SDS011;37895;53.240;6.572;2023-05-01T14:57:37;3.85;;;2.25;;
51854;SDS011;37895;53.240;6.572;2023-05-01T15:00:03;6.13;;;3.20;;
51854;SDS011;37895;53.240;6.572;2023-05-01T15:02:32;5.55;;;2.92;;
51854;SDS011;37895;53.240;6.572;2023-05-01T15:04:58;6.80;;;3.60;;
51854;SDS011;37895;53.240;6.572;2023-05-01T15:07:24;8.48;;;3.63;;
51854;SDS011;37895;53.240;6.572;2023-05-01T15:09:49;8.70;;;3.90;;
51854;SDS011;37895;53.240;6.572;2023-05-01T15:14:41;8.52;;;5.20;;
51854;SDS011;37895;53.240;6.572;2023-05-01T15:17:07;12.50;;;6.20;;
51854;SDS011;37895;53.240;6.572;2023-05-01T15:19:32;11.57;;;7.30;;
51854;SDS011;37895;53.240;6.572;2023-05-01T15:21:58;12.60;;;7.45;;
51854;SDS011;37895;53.240;6.572;2023-05-01T15:24:26;10.75;;;7.10;;
51854;SDS011;37895;53.240;6.572;2023-05-01T15:26:52;11.02;;;7.97;;
51854;SDS011;37895;53.240;6.572;2023-05-01T15:29:17;10.80;;;7.55;;
51854;SDS011;37895;53.240;6.572;2023-05-01T15:31:43;16.60;;;8.13;;
51854;SDS011;37895;53.240;6.572;2023-05-01T15:34:09;13.90;;;8.55;;
51854;SDS011;37895;53.240;6.572;2023-05-01T15:36:34;13.50;;;9.25;;
51854;SDS011;37895;53.240;6.572;2023-05-01T15:39:00;13.60;;;8.95;;
51854;SDS011;37895;53.240;6.572;2023-05-01T15:41:27;16.38;;;10.48;;
51854;SDS011;37895;53.240;6.572;2023-05-01T15:43:53;13.43;;;9.50;;
51854;SDS011;37895;53.240;6.572;2023-05-01T15:46:18;15.75;;;10.20;;
51854;SDS011;37895;53.240;6.572;2023-05-01T15:48:47;13.05;;;9.57;;
51854;SDS011;37895;53.240;6.572;2023-05-01T15:51:13;12.18;;;9.05;;
51854;SDS011;37895;53.240;6.572;2023-05-01T15:53:39;17.40;;;10.43;;
51854;SDS011;37895;53.240;6.572;2023-05-01T15:56:04;16.38;;;9.63;;
51854;SDS011;37895;53.240;6.572;2023-05-01T15:58:30;10.93;;;8.82;;
51854;SDS011;37895;53.240;6.572;2023-05-01T16:00:56;12.93;;;9.05;;
51854;SDS011;37895;53.240;6.572;2023-05-01T16:03:21;13.63;;;9.25;;
51854;SDS011;37895;53.240;6.572;2023-05-01T16:05:47;10.52;;;8.52;;
51854;SDS011;37895;53.240;6.572;2023-05-01T16:08:13;12.43;;;8.43;;
51854;SDS011;37895;53.240;6.572;2023-05-01T16:10:38;11.60;;;8.23;;
51854;SDS011;37895;53.240;6.572;2023-05-01T16:13:04;12.27;;;8.55;;
51854;SDS011;37895;53.240;6.572;2023-05-01T16:17:56;13.20;;;9.18;;